Time;durP1;ratioP1;P1;durP2;ratioP2;P2;SDS_P1;SDS_P2;PMS_P1;PMS_P2;Temp;Humidity;BMP_temperature;BMP_pressure;BME280_temperature;BME280_humidity;BME280_pressure;Samples;Min_cycle;Max_cycle;Signal;HPM_P1;HPM_P2
2023/01/09 00:02:44;;;;;;;2.00;0.98;;;;;;;5.57;100.00;99264.13;10447981;28;20041;-79
2023/01/09 00:07:45;;;;;;;2.47;0.98;;;;;;;5.57;100.00;99258.06;10461731;28;20048;-78
2023/01/09 00:12:45;;;;;;;3.10;1.05;;;;;;;5.47;100.00;99268.88;10447823;28;20140;-79
2023/01/09 00:17:46;;;;;;;2.78;1.00;;;;;;;5.41;100.00;99274.69;10442464;28;20033;-79
2023/01/09 00:22:47;;;;;;;2.07;0.70;;;;;;;5.34;100.00;99296.91;10462879;28;20071;-78
2023/01/09 00:27:47;;;;;;;2.20;1.00;;;;;;;5.32;100.00;99297.63;10464942;28;20462;-79
2023/01/09 00:32:48;;;;;;;1.75;0.90;;;;;;;5.33;100.00;99296.81;10447075;28;20405;-79
2023/01/09 00:37:48;;;;;;;1.50;1.05;;;;;;;5.20;100.00;99306.66;10495505;28;20036;-78
2023/01/09 00:42:51;;;;;;;3.95;0.95;;;;;;;5.13;100.00;99307.19;10486630;28;20083;-78
2023/01/09 00:47:52;;;;;;;1.92;0.90;;;;;;;4.98;100.00;99308.28;10452044;28;20033;-78
2023/01/09 00:52:53;;;;;;;1.60;0.65;;;;;;;4.98;100.00;99308.28;10461074;28;20487;-78
2023/01/09 00:57:54;;;;;;;3.75;0.60;;;;;;;4.87;100.00;99303.44;10406720;28;20178;-78
2023/01/09 01:02:55;;;;;;;2.87;0.90;;;;;;;4.74;100.00;99320.13;10462052;28;20044;-78
2023/01/09 01:07:55;;;;;;;1.73;0.55;;;;;;;4.57;100.00;99320.25;10445595;28;20045;-80
2023/01/09 01:12:56;;;;;;;3.00;0.55;;;;;;;4.45;100.00;99320.56;10446538;28;20069;-79
2023/01/09 01:17:56;;;;;;;4.47;0.80;;;;;;;4.23;100.00;99327.31;10463342;28;20123;-79
2023/01/09 01:22:57;;;;;;;3.83;1.88;;;;;;;4.16;100.00;99330.41;10473595;28;20041;-79
2023/01/09 01:27:57;;;;;;;3.35;2.25;;;;;;;4.02;100.00;99326.28;10465039;28;20045;-80
2023/01/09 01:32:58;;;;;;;3.45;1.92;;;;;;;3.84;100.00;99324.53;10484549;28;20064;-79
2023/01/09 01:37:58;;;;;;;6.50;1.42;;;;;;;3.96;100.00;99334.59;10445073;28;20041;-79
2023/01/09 01:42:59;;;;;;;3.63;1.33;;;;;;;3.77;100.00;99327.63;10459938;28;20388;-79
2023/01/09 01:48:07;;;;;;;1.75;1.23;;;;;;;3.55;100.00;99331.72;10443826;28;20195;-78
2023/01/09 01:53:18;;;;;;;2.72;1.30;;;;;;;3.53;100.00;99346.28;10397509;28;20041;-78
2023/01/09 01:58:19;;;;;;;5.77;2.07;;;;;;;3.40;100.00;99356.81;10447033;28;20048;-79
2023/01/09 02:03:22;;;;;;;4.13;1.27;;;;;;;3.32;100.00;99362.47;10455699;28;20550;-79
2023/01/09 02:08:22;;;;;;;5.00;1.17;;;;;;;3.27;100.00;99374.28;10404724;28;20036;-78
2023/01/09 02:13:24;;;;;;;3.90;1.10;;;;;;;3.59;100.00;99372.47;10413757;28;20400;-79
2023/01/09 02:18:36;;;;;;;7.35;1.42;;;;;;;3.64;100.00;99381.34;10417341;28;20026;-80
2023/01/09 02:23:43;;;;;;;3.83;1.73;;;;;;;3.56;100.00;99379.16;10400898;28;20060;-80
2023/01/09 02:29:11;;;;;;;4.60;1.92;;;;;;;3.47;100.00;99374.41;10421243;28;20046;-79
2023/01/09 02:34:14;;;;;;;11.65;1.88;;;;;;;3.35;100.00;99374.66;10401704;28;20062;-80
2023/01/09 02:39:34;;;;;;;8.15;2.20;;;;;;;3.28;100.00;99369.97;10387887;28;20034;-79
2023/01/09 02:44:35;;;;;;;4.35;2.83;;;;;;;3.35;100.00;99365.22;10365523;28;20072;-79
2023/01/09 02:49:37;;;;;;;5.57;2.72;;;;;;;3.23;100.00;99362.84;10430985;28;20037;-80
2023/01/09 02:54:46;;;;;;;5.63;2.73;;;;;;;3.22;100.00;99357.63;10410479;28;20048;-79
2023/01/09 03:00:17;;;;;;;4.95;2.10;;;;;;;3.22;100.00;99358.50;10437251;28;20048;-80
2023/01/09 03:05:31;;;;;;;10.23;3.05;;;;;;;3.06;100.00;99356.81;10442537;28;20473;-80
2023/01/09 03:10:44;;;;;;;8.98;3.03;;;;;;;3.01;100.00;99354.78;10415589;28;20033;-80
2023/01/09 03:15:45;;;;;;;5.47;3.08;;;;;;;3.02;100.00;99352.28;10439194;28;20091;-79
2023/01/09 03:20:45;;;;;;;7.88;2.92;;;;;;;3.05;100.00;99348.94;10404583;28;20037;-79
2023/01/09 03:25:46;;;;;;;6.45;3.35;;;;;;;2.96;100.00;99349.38;10393160;28;20045;-79
2023/01/09 03:30:46;;;;;;;6.22;3.15;;;;;;;2.88;100.00;99366.16;10447919;28;20049;-78
2023/01/09 03:35:47;;;;;;;8.73;3.17;;;;;;;2.96;100.00;99370.03;10427065;28;20900;-80
2023/01/09 03:40:48;;;;;;;6.50;2.60;;;;;;;2.85;100.00;99377.19;10448806;28;20041;-80
2023/01/09 03:45:48;;;;;;;7.28;2.78;;;;;;;2.73;100.00;99377.44;10445981;28;20404;-79
2023/01/09 03:50:50;;;;;;;9.57;2.67;;;;;;;2.81;100.00;99369.22;10406657;28;20069;-79
2023/01/09 03:55:51;;;;;;;8.60;2.93;;;;;;;2.79;100.00;99374.28;10390536;28;20404;-79
2023/01/09 04:00:57;;;;;;;9.00;3.20;;;;;;;2.85;100.00;99366.00;10444702;28;20763;-79
2023/01/09 04:05:57;;;;;;;11.00;2.80;;;;;;;3.11;100.00;99382.88;10397955;28;20034;-79
2023/01/09 04:10:58;;;;;;;6.40;3.13;;;;;;;3.16;100.00;99378.84;10413049;28;20386;-79
2023/01/09 04:15:58;;;;;;;8.73;2.42;;;;;;;3.14;100.00;99371.84;10439094;28;20037;-79
2023/01/09 04:20:59;;;;;;;9.65;2.25;;;;;;;3.23;100.00;99380.97;10442827;28;20045;-78
2023/01/09 04:26:00;;;;;;;6.95;2.67;;;;;;;3.34;100.00;99376.38;10446043;28;20033;-78
2023/01/09 04:31:01;;;;;;;8.18;3.80;;;;;;;3.58;100.00;99383.63;10486430;28;20044;-78
2023/01/09 04:36:02;;;;;;;9.77;2.17;;;;;;;3.83;100.00;99371.94;10461686;28;20040;-78
2023/01/09 04:41:02;;;;;;;9.25;2.38;;;;;;;3.99;100.00;99378.75;10420777;28;20496;-79
2023/01/09 04:46:03;;;;;;;6.00;1.88;;;;;;;4.06;100.00;99382.56;10404459;28;20050;-79
2023/01/09 04:51:03;;;;;;;5.18;1.73;;;;;;;4.19;100.00;99378.88;10480086;28;20119;-79
2023/01/09 04:56:04;;;;;;;8.30;1.40;;;;;;;4.34;100.00;99363.19;10441191;28;20090;-78
2023/01/09 05:01:04;;;;;;;7.22;1.77;;;;;;;4.47;100.00;99362.97;10437793;28;20063;-79
2023/01/09 05:06:05;;;;;;;7.32;1.98;;;;;;;4.53;100.00;99352.00;10428846;28;20091;-79
2023/01/09 05:11:06;;;;;;;8.05;2.47;;;;;;;4.66;100.00;99350.91;10454449;28;20067;-79
2023/01/09 05:16:07;;;;;;;7.15;1.90;;;;;;;4.76;100.00;99360.88;10442681;28;20155;-79
2023/01/09 05:21:08;;;;;;;5.35;2.45;;;;;;;4.80;100.00;99360.22;10454427;28;20102;-80
2023/01/09 05:26:09;;;;;;;7.88;2.88;;;;;;;4.90;100.00;99360.63;10442276;28;20128;-81
2023/01/09 05:31:09;;;;;;;8.82;1.77;;;;;;;4.87;100.00;99358.75;10417800;28;20520;-80
2023/01/09 05:36:10;;;;;;;15.48;2.15;;;;;;;4.94;100.00;99365.13;10432138;28;20033;-80
2023/01/09 05:41:10;;;;;;;5.13;2.70;;;;;;;4.93;100.00;99361.63;10421808;28;20068;-80
2023/01/09 05:46:11;;;;;;;5.43;1.90;;;;;;;4.97;100.00;99355.78;10443734;28;20040;-79
2023/01/09 05:51:11;;;;;;;4.82;2.15;;;;;;;4.96;100.00;99359.19;10433020;28;20064;-80
2023/01/09 05:56:12;;;;;;;8.63;2.40;;;;;;;5.03;100.00;99365.56;10447067;28;20117;-78
2023/01/09 06:01:12;;;;;;;7.85;1.88;;;;;;;5.07;100.00;99354.50;10435412;28;20144;-78
2023/01/09 06:06:13;;;;;;;6.38;1.92;;;;;;;5.13;100.00;99359.97;10459419;28;20047;-80
2023/01/09 06:11:13;;;;;;;11.80;3.35;;;;;;;5.14;100.00;99359.16;10444214;28;20150;-81
2023/01/09 06:16:14;;;;;;;5.28;2.28;;;;;;;5.19;100.00;99348.97;10434970;28;20168;-80
2023/01/09 06:21:14;;;;;;;10.75;2.63;;;;;;;5.24;100.00;99334.50;10405671;28;20033;-80
2023/01/09 06:26:15;;;;;;;8.52;2.42;;;;;;;5.35;100.00;99344.47;10392713;28;20112;-78
2023/01/09 06:31:15;;;;;;;9.93;2.13;;;;;;;5.46;100.00;99331.97;10394887;28;20038;-79
2023/01/09 06:36:16;;;;;;;15.38;4.28;;;;;;;5.60;100.00;99333.47;10350757;28;20047;-78
2023/01/09 06:41:17;;;;;;;11.38;3.63;;;;;;;5.58;100.00;99333.38;10404132;28;20082;-78
2023/01/09 06:46:17;;;;;;;6.53;1.88;;;;;;;5.54;100.00;99341.84;10398143;28;20124;-79
2023/01/09 06:51:18;;;;;;;27.38;14.90;;;;;;;5.56;100.00;99342.81;10396051;28;20141;-79
2023/01/09 06:56:19;;;;;;;9.90;3.25;;;;;;;5.68;100.00;99344.16;10394060;28;20052;-79
2023/01/09 07:01:19;;;;;;;7.65;2.75;;;;;;;5.77;100.00;99321.19;10405347;28;20041;-78
2023/01/09 07:06:20;;;;;;;11.05;2.95;;;;;;;5.75;100.00;99317.63;10386715;28;20061;-78
2023/01/09 07:11:20;;;;;;;22.23;4.40;;;;;;;5.83;100.00;99329.22;10397971;28;20083;-78
2023/01/09 07:16:21;;;;;;;13.88;3.83;;;;;;;5.79;100.00;99327.31;10382022;28;20072;-78
2023/01/09 07:21:21;;;;;;;11.77;3.05;;;;;;;5.84;100.00;99341.38;10401027;28;20054;-81
2023/01/09 07:26:22;;;;;;;9.18;2.65;;;;;;;5.92;100.00;99341.72;10381635;28;20044;-80
2023/01/09 07:31:22;;;;;;;9.20;2.00;;;;;;;5.88;100.00;99342.41;10394466;28;20045;-78
2023/01/09 07:36:23;;;;;;;8.77;3.28;;;;;;;5.85;100.00;99363.94;10358879;28;20057;-78
2023/01/09 07:41:23;;;;;;;11.70;3.03;;;;;;;5.82;100.00;99378.50;10358589;28;20038;-79
2023/01/09 07:46:24;;;;;;;7.22;1.70;;;;;;;5.87;100.00;99364.00;10396495;28;20043;-80
2023/01/09 07:51:24;;;;;;;11.85;2.10;;;;;;;5.90;100.00;99381.41;10388078;28;20409;-80
2023/01/09 07:56:25;;;;;;;10.20;2.70;;;;;;;5.86;100.00;99381.28;10396355;28;20033;-82
2023/01/09 08:01:25;;;;;;;8.10;2.08;;;;;;;5.83;100.00;99399.34;10367398;28;20046;-83
2023/01/09 08:06:26;;;;;;;8.13;2.20;;;;;;;5.88;100.00;99394.34;10380324;28;20476;-79
2023/01/09 08:11:26;;;;;;;8.77;2.42;;;;;;;5.92;100.00;99395.34;10434594;28;20041;-79
2023/01/09 08:16:27;;;;;;;10.00;2.13;;;;;;;5.91;100.00;99415.25;10389256;28;20069;-78
2023/01/09 08:21:27;;;;;;;6.45;1.50;;;;;;;5.94;100.00;99412.78;10408248;28;20037;-79
2023/01/09 08:26:28;;;;;;;5.90;1.58;;;;;;;6.00;100.00;99417.34;10444449;28;20063;-81
2023/01/09 08:31:29;;;;;;;4.78;2.55;;;;;;;6.01;100.00;99414.88;10463649;28;20131;-80
2023/01/09 08:36:29;;;;;;;5.15;2.22;;;;;;;5.98;100.00;99424.19;10451664;28;20047;-80
2023/01/09 08:47:07;;;;;;;5.35;1.27;;;;;;;6.12;100.00;99441.28;10445673;28;20044;-80
2023/01/09 08:52:07;;;;;;;10.18;3.08;;;;;;;6.15;100.00;99454.41;10446395;28;20068;-80
2023/01/09 08:57:08;;;;;;;6.30;2.10;;;;;;;6.13;100.00;99474.22;10445121;28;20128;-81
2023/01/09 09:02:09;;;;;;;4.68;1.38;;;;;;;6.10;100.00;99479.28;10444484;28;20040;-80
2023/01/09 09:07:09;;;;;;;7.03;1.25;;;;;;;6.09;100.00;99480.13;10443610;28;20489;-80
2023/01/09 09:12:10;;;;;;;8.85;3.78;;;;;;;6.16;100.00;99500.34;10432643;28;20507;-80
2023/01/09 09:17:10;;;;;;;3.80;1.73;;;;;;;6.13;100.00;99502.81;10402752;28;20126;-80
2023/01/09 09:22:11;;;;;;;5.35;1.27;;;;;;;6.17;100.00;99503.84;10415999;28;20043;-80
2023/01/09 09:27:11;;;;;;;19.55;3.47;;;;;;;6.15;100.00;99519.34;10410101;28;20068;-79
2023/01/09 09:32:12;;;;;;;4.15;1.60;;;;;;;6.23;100.00;99527.50;10412138;28;20144;-79
2023/01/09 09:37:12;;;;;;;8.93;1.73;;;;;;;6.27;100.00;99532.00;10399070;28;20053;-81
2023/01/09 09:47:52;;;;;;;8.25;3.20;;;;;;;6.50;100.00;99552.00;10458034;28;20409;-79
2023/01/09 09:53:16;;;;;;;10.10;1.65;;;;;;;6.51;100.00;99549.47;10444342;28;20700;-78
2023/01/09 09:58:41;;;;;;;3.75;1.75;;;;;;;6.63;100.00;99579.41;10412866;28;20053;-80
2023/01/09 10:03:58;;;;;;;15.98;4.70;;;;;;;6.77;100.00;99580.91;10422002;28;20179;-81
2023/01/09 10:09:16;;;;;;;12.05;3.60;;;;;;;7.15;100.00;99594.59;10421221;28;20112;-80
2023/01/09 10:14:16;;;;;;;8.63;1.90;;;;;;;7.14;100.00;99604.94;10414251;28;20033;-79
2023/01/09 10:19:20;;;;;;;6.00;1.77;;;;;;;6.96;100.00;99607.69;10426821;28;20504;-79
2023/01/09 10:24:36;;;;;;;4.65;1.30;;;;;;;6.88;100.00;99616.06;10435309;28;20764;-78
2023/01/09 10:30:23;;;;;;;6.15;1.60;;;;;;;6.71;100.00;99619.63;10403447;28;20052;-78
2023/01/09 10:35:45;;;;;;;10.07;2.03;;;;;;;6.60;100.00;99621.75;10376238;28;20045;-77
2023/01/09 10:40:47;;;;;;;;;;;;;;;6.47;100.00;99626.41;10415970;28;20033;-81
2023/01/09 10:45:51;;;;;;;6.60;1.40;;;;;;;6.39;100.00;99642.50;10439003;28;20388;-78
2023/01/09 10:50:52;;;;;;;4.35;1.75;;;;;;;6.38;100.00;99640.72;10426604;28;20417;-78
2023/01/09 10:55:54;;;;;;;5.55;1.80;;;;;;;6.41;100.00;99633.06;10468591;28;20076;-78
2023/01/09 11:00:57;;;;;;;12.40;2.22;;;;;;;6.47;100.00;99636.81;10424496;28;20045;-79
2023/01/09 11:05:58;;;;;;;4.70;2.10;;;;;;;6.69;100.00;99632.56;10440561;28;20152;-77
2023/01/09 11:10:59;;;;;;;3.55;1.98;;;;;;;6.69;100.00;99637.75;10461698;28;20045;-79
2023/01/09 11:16:13;;;;;;;2.63;1.73;;;;;;;6.54;100.00;99632.78;10480506;28;20045;-79
2023/01/09 11:21:30;;;;;;;4.45;2.03;;;;;;;6.53;100.00;99646.63;10436037;28;20033;-79
2023/01/09 11:26:33;;;;;;;1.95;0.95;;;;;;;6.58;100.00;99657.19;10427020;28;20037;-78
2023/01/09 11:31:34;;;;;;;3.85;1.40;;;;;;;6.59;100.00;99646.88;10474308;28;20042;-78
2023/01/09 11:36:35;;;;;;;3.35;1.65;;;;;;;6.57;100.00;99660.63;10444195;28;20037;-78
2023/01/09 11:41:35;;;;;;;5.22;1.88;;;;;;;6.52;100.00;99662.13;10438697;28;20123;-78
2023/01/09 11:46:37;;;;;;;3.85;1.02;;;;;;;6.56;100.00;99669.25;10452269;28;20140;-78
2023/01/09 11:51:38;;;;;;;5.38;1.75;;;;;;;6.57;100.00;99676.22;10408211;28;20121;-78
2023/01/09 11:56:38;;;;;;;5.57;1.63;;;;;;;6.56;100.00;99658.84;10403938;28;20607;-77
2023/01/09 12:02:11;;;;;;;5.40;1.55;;;;;;;6.44;100.00;99682.59;10420122;28;20845;-78
2023/01/09 12:07:35;;;;;;;5.50;1.70;;;;;;;6.57;100.00;99697.00;10421827;28;20500;-78
2023/01/09 12:13:03;;;;;;;3.95;1.75;;;;;;;6.74;100.00;99689.97;10412074;28;21242;-78
2023/01/09 12:18:22;;;;;;;6.90;1.90;;;;;;;6.75;100.00;99678.75;10488815;28;20041;-79
2023/01/09 12:23:28;;;;;;;8.90;2.88;;;;;;;6.47;100.00;99713.94;10477662;28;20405;-78
2023/01/09 12:28:51;;;;;;;4.50;1.98;;;;;;;6.34;100.00;99729.78;10467241;28;20505;-78
2023/01/09 12:34:03;;;;;;;5.72;2.22;;;;;;;6.09;100.00;99726.91;10486014;28;20114;-78
2023/01/09 12:39:27;;;;;;;;;;;;;;;6.22;100.00;99732.69;10486260;28;20123;-78
2023/01/09 12:45:08;;;;;;;6.70;1.83;;;;;;;6.88;100.00;99734.78;10412727;28;19934;-78
2023/01/09 12:50:39;;;;;;;5.65;1.40;;;;;;;9.25;100.00;99725.84;10392580;28;20033;-78
2023/01/09 12:55:42;;;;;;;4.20;1.63;;;;;;;8.26;100.00;99727.44;10444916;28;20037;-78
2023/01/09 13:00:44;;;;;;;3.50;1.27;;;;;;;7.62;100.00;99732.72;10427562;28;20056;-78
2023/01/09 13:05:46;;;;;;;5.22;1.77;;;;;;;7.19;100.00;99747.44;10442658;28;20116;-78
2023/01/09 13:11:04;;;;;;;3.40;1.88;;;;;;;7.22;100.00;99751.88;10401694;28;20076;-78
2023/01/09 13:16:05;;;;;;;6.95;2.13;;;;;;;7.27;100.00;99760.78;10445021;28;20044;-79
2023/01/09 13:21:06;;;;;;;3.20;1.77;;;;;;;7.11;100.00;99772.25;10467496;28;20468;-79
2023/01/09 13:26:14;;;;;;;4.25;2.00;;;;;;;7.12;100.00;99779.22;10466361;28;20098;-78
2023/01/09 13:31:47;;;;;;;4.72;1.63;;;;;;;7.11;100.00;99787.84;10425439;28;20128;-79
2023/01/09 13:36:49;;;;;;;4.85;2.13;;;;;;;7.20;100.00;99800.38;10458909;28;20492;-81
2023/01/09 13:47:32;;;;;;;5.57;2.55;;;;;;;7.04;100.00;99814.41;10402608;28;20523;-81
2023/01/09 13:52:39;;;;;;;6.47;2.20;;;;;;;6.95;100.00;99820.09;10400918;28;20097;-81
2023/01/09 13:58:12;;;;;;;6.63;2.45;;;;;;;7.24;100.00;99815.28;10439922;28;20366;-80
2023/01/09 14:03:19;;;;;;;7.20;3.25;;;;;;;7.51;100.00;99822.53;10450689;28;20400;-78
2023/01/09 14:08:20;;;;;;;8.70;3.25;;;;;;;7.19;100.00;99842.81;10430079;28;20049;-79
2023/01/09 14:13:25;;;;;;;8.88;2.88;;;;;;;7.00;100.00;99855.00;10409209;28;20128;-81
2023/01/09 14:18:30;;;;;;;7.78;2.45;;;;;;;7.06;100.00;99864.81;10451793;28;20116;-80
2023/01/09 14:23:50;;;;;;;10.48;3.72;;;;;;;6.95;100.00;99877.31;10419701;28;20033;-81
2023/01/09 14:28:50;;;;;;;6.65;3.42;;;;;;;6.87;100.00;99883.88;10431458;28;20033;-80
2023/01/09 14:33:51;;;;;;;9.45;4.00;;;;;;;6.69;100.00;99899.50;10468883;28;20512;-80
2023/01/09 14:38:53;;;;;;;7.80;3.97;;;;;;;6.56;100.00;99904.13;10424758;28;20408;-81
2023/01/09 14:43:58;;;;;;;7.07;2.92;;;;;;;6.57;100.00;99905.00;10423281;28;20115;-81
2023/01/09 14:49:14;;;;;;;3.22;2.65;;;;;;;6.57;100.00;99926.72;10442080;28;20037;-81
2023/01/09 14:54:27;;;;;;;11.15;4.57;;;;;;;6.59;100.00;99943.28;10423320;28;20501;-82
2023/01/09 14:59:28;;;;;;;5.20;2.70;;;;;;;6.49;100.00;99959.25;10439686;28;20029;-82
2023/01/09 15:04:35;;;;;;;7.18;2.63;;;;;;;6.34;100.00;99980.13;10424356;28;20082;-81
2023/01/09 15:09:42;;;;;;;4.93;2.92;;;;;;;6.22;100.00;99988.22;10439335;28;20045;-82
2023/01/09 15:14:44;;;;;;;6.28;3.40;;;;;;;6.17;100.00;99997.50;10455660;28;20075;-81
2023/01/09 15:19:45;;;;;;;6.43;3.25;;;;;;;6.07;100.00;100005.63;10484216;28;20488;-81
2023/01/09 15:24:45;;;;;;;6.82;3.13;;;;;;;5.82;100.00;100012.97;10470868;28;20041;-79
2023/01/09 15:29:46;;;;;;;7.53;3.38;;;;;;;5.81;100.00;100028.50;10462072;28;20123;-80
2023/01/09 15:34:47;;;;;;;5.65;3.03;;;;;;;5.84;100.00;100034.72;10479833;28;20043;-79
2023/01/09 15:39:47;;;;;;;6.05;3.85;;;;;;;5.83;100.00;100040.72;10455091;28;20045;-79
2023/01/09 15:44:48;;;;;;;6.53;3.08;;;;;;;5.75;100.00;100043.75;10451044;28;20419;-79
2023/01/09 15:49:49;;;;;;;9.57;3.80;;;;;;;5.55;100.00;100052.22;10449419;28;20044;-80
2023/01/09 15:54:49;;;;;;;7.07;3.15;;;;;;;5.29;100.00;100067.25;10466542;28;20480;-79
2023/01/09 15:59:53;;;;;;;7.43;4.05;;;;;;;5.18;100.00;100080.44;10451474;28;20037;-79
2023/01/09 16:04:54;;;;;;;8.23;4.85;;;;;;;5.29;100.00;100090.59;10439602;28;20042;-79
2023/01/09 16:09:54;;;;;;;8.15;5.53;;;;;;;5.31;100.00;100098.47;10393208;28;20037;-79
2023/01/09 16:14:59;;;;;;;11.52;3.33;;;;;;;5.32;100.00;100104.53;10406951;28;21836;-80
2023/01/09 16:20:14;;;;;;;12.40;5.10;;;;;;;5.26;100.00;100115.50;10404496;28;20048;-80
2023/01/09 16:25:24;;;;;;;5.97;3.42;;;;;;;5.12;100.00;100125.97;10445519;28;20049;-80
2023/01/09 16:30:25;;;;;;;5.65;2.60;;;;;;;5.07;100.00;100142.97;10386318;28;20048;-80
2023/01/09 16:35:26;;;;;;;8.90;4.30;;;;;;;5.19;100.00;100163.53;10384167;28;20117;-80
2023/01/09 16:40:28;;;;;;;12.95;4.32;;;;;;;5.27;100.00;100177.84;10403183;28;20038;-80
2023/01/09 16:45:36;;;;;;;;;;;;;;;5.23;100.00;100188.84;10439417;28;20044;-80
2023/01/09 16:50:36;;;;;;;7.65;4.35;;;;;;;5.11;100.00;100193.31;10482757;28;19921;-79
2023/01/09 16:55:37;;;;;;;11.13;5.18;;;;;;;5.02;100.00;100222.22;10484880;28;20111;-80
2023/01/09 17:00:37;;;;;;;17.90;6.68;;;;;;;4.99;100.00;100230.69;10429025;28;20094;-80
2023/01/09 17:05:38;;;;;;;12.80;5.88;;;;;;;4.97;100.00;100227.09;10441889;28;20485;-80
2023/01/09 17:10:38;;;;;;;17.25;6.68;;;;;;;4.80;100.00;100236.47;10461874;28;20051;-79
2023/01/09 17:15:39;;;;;;;13.02;5.30;;;;;;;4.63;100.00;100250.09;10457742;28;20374;-81
2023/01/09 17:20:40;;;;;;;21.77;7.82;;;;;;;4.52;100.00;100258.13;10445349;28;20437;-81
2023/01/09 17:31:05;;;;;;;11.70;5.63;;;;;;;4.58;100.00;100275.72;10443617;28;20044;-81
2023/01/09 17:36:24;;;;;;;25.17;9.27;;;;;;;4.45;100.00;100292.22;10424700;28;20396;-80
2023/01/09 17:41:26;;;;;;;21.45;8.43;;;;;;;4.40;100.00;100297.09;10450900;28;20044;-81
2023/01/09 17:46:29;;;;;;;11.85;5.72;;;;;;;4.29;100.00;100305.88;10470091;28;20420;-80
2023/01/09 17:51:30;;;;;;;10.68;6.53;;;;;;;3.98;100.00;100316.84;10437092;28;20037;-80
2023/01/09 17:56:32;;;;;;;10.20;5.38;;;;;;;3.99;100.00;100321.22;10412209;28;20492;-82
2023/01/09 18:01:33;;;;;;;18.25;10.00;;;;;;;4.24;100.00;100339.28;10386670;28;20047;-83
2023/01/09 18:06:35;;;;;;;20.70;6.72;;;;;;;4.45;100.00;100357.00;10441248;28;20063;-80
2023/01/09 18:11:35;;;;;;;12.60;6.97;;;;;;;4.62;100.00;100370.13;10422034;28;20473;-80
2023/01/09 18:16:36;;;;;;;11.68;7.25;;;;;;;4.66;100.00;100369.53;10439904;28;20036;-84
2023/01/09 18:21:36;;;;;;;17.35;8.85;;;;;;;4.66;100.00;100396.34;10441350;28;20101;-83
2023/01/09 18:26:37;;;;;;;15.32;8.60;;;;;;;4.73;100.00;100401.91;10450873;28;20127;-81
2023/01/09 18:31:38;;;;;;;18.13;8.77;;;;;;;4.70;100.00;100407.81;10482236;28;20507;-84
2023/01/09 18:36:38;;;;;;;17.60;9.82;;;;;;;4.60;100.00;100421.88;10468748;28;20535;-82
2023/01/09 18:41:39;;;;;;;21.83;9.25;;;;;;;4.51;100.00;100436.81;10482130;28;20048;-80
2023/01/09 18:46:42;;;;;;;19.60;8.65;;;;;;;4.53;100.00;100453.38;10462262;28;20491;-80
2023/01/09 18:51:43;;;;;;;17.80;9.43;;;;;;;4.42;100.00;100465.66;10463783;28;20041;-84
2023/01/09 18:56:43;;;;;;;19.80;9.38;;;;;;;4.46;100.00;100477.09;10449174;28;20123;-80
2023/01/09 19:01:44;;;;;;;23.52;8.85;;;;;;;4.48;100.00;100499.75;10441439;28;20457;-82
2023/01/09 19:06:50;;;;;;;14.23;7.13;;;;;;;4.60;100.00;100504.81;10421845;28;20049;-80
2023/01/09 19:11:50;;;;;;;14.48;7.90;;;;;;;4.66;100.00;100513.00;10423077;28;20049;-79
2023/01/09 19:16:53;;;;;;;10.40;5.75;;;;;;;4.65;100.00;100520.69;10400460;28;20076;-79
2023/01/09 19:21:53;;;;;;;14.90;6.28;;;;;;;4.63;100.00;100512.78;10410562;28;20037;-78
2023/01/09 19:26:54;;;;;;;12.32;6.63;;;;;;;4.46;100.00;100523.75;10438322;28;20044;-80
2023/01/09 19:31:55;;;;;;;10.15;6.32;;;;;;;4.33;100.00;100540.19;10427966;28;20043;-79
2023/01/09 19:36:56;;;;;;;11.43;5.63;;;;;;;4.20;100.00;100544.53;10406919;28;20041;-81
2023/01/09 19:41:57;;;;;;;10.00;4.88;;;;;;;4.10;100.00;100562.81;10401343;28;20037;-80
2023/01/09 19:46:58;;;;;;;7.97;2.83;;;;;;;4.09;100.00;100567.09;10397291;28;20405;-81
2023/01/09 19:51:59;;;;;;;12.88;3.50;;;;;;;4.11;100.00;100583.63;10382689;28;20042;-81
2023/01/09 19:57:00;;;;;;;7.77;2.50;;;;;;;4.24;100.00;100584.47;10396842;28;20038;-81
2023/01/09 20:02:01;;;;;;;7.20;2.40;;;;;;;4.29;100.00;100605.53;10406040;28;20064;-81
2023/01/09 20:07:03;;;;;;;7.50;2.80;;;;;;;4.35;100.00;100621.50;10409268;28;20057;-81
2023/01/09 20:12:04;;;;;;;8.25;2.65;;;;;;;4.31;100.00;100635.91;10403488;28;20434;-83
2023/01/09 20:17:05;;;;;;;8.50;3.70;;;;;;;4.29;100.00;100642.69;10435658;28;20037;-83
2023/01/09 20:22:05;;;;;;;7.97;3.72;;;;;;;4.17;100.00;100655.69;10426366;28;20393;-81
2023/01/09 20:27:06;;;;;;;9.77;4.90;;;;;;;4.25;100.00;100676.94;10408440;28;20088;-85
2023/01/09 20:32:07;;;;;;;17.27;7.55;;;;;;;4.35;100.00;100691.47;10394804;28;20034;-85
2023/01/09 20:37:08;;;;;;;17.10;8.63;;;;;;;4.40;100.00;100688.38;10436555;28;20451;-85
2023/01/09 20:42:08;;;;;;;15.20;9.23;;;;;;;4.39;100.00;100709.03;10436048;28;20160;-84
2023/01/09 20:47:09;;;;;;;14.30;9.50;;;;;;;4.42;100.00;100719.59;10438915;28;20528;-85
2023/01/09 20:52:09;;;;;;;18.27;10.45;;;;;;;4.35;100.00;100713.06;10441959;28;20128;-83
2023/01/09 20:57:10;;;;;;;20.90;11.93;;;;;;;4.21;100.00;100718.97;10439026;28;20059;-80
2023/01/09 21:02:13;;;;;;;18.80;9.73;;;;;;;4.14;100.00;100727.09;10418796;28;20481;-84
2023/01/09 21:07:14;;;;;;;22.25;11.88;;;;;;;4.13;100.00;100738.25;10422102;28;20036;-80
2023/01/09 21:12:23;;;;;;;27.35;11.68;;;;;;;3.89;100.00;100746.97;10418912;28;20041;-81
2023/01/09 21:17:24;;;;;;;21.95;12.48;;;;;;;3.71;100.00;100749.09;10422425;28;20037;-80
2023/01/09 21:22:24;;;;;;;19.13;11.68;;;;;;;3.47;100.00;100766.31;10439388;28;20120;-83
2023/01/09 21:27:28;;;;;;;13.50;7.88;;;;;;;3.34;100.00;100769.66;10439172;28;20484;-80
2023/01/09 21:32:31;;;;;;;18.88;9.13;;;;;;;3.27;100.00;100790.69;10438463;28;20048;-82
2023/01/09 21:37:33;;;;;;;17.42;9.07;;;;;;;3.50;100.00;100802.78;10384968;28;20493;-81
2023/01/09 21:47:53;;;;;;;13.95;5.70;;;;;;;3.94;100.00;100802.59;10443543;28;20108;-81
2023/01/09 21:52:54;;;;;;;13.35;4.68;;;;;;;3.90;100.00;100803.16;10423817;28;20044;-82
2023/01/09 21:57:55;;;;;;;19.02;7.03;;;;;;;3.99;100.00;100812.38;10444180;28;20080;-81
2023/01/09 22:02:55;;;;;;;13.10;6.70;;;;;;;3.85;100.00;100827.81;10459153;28;20093;-81
2023/01/09 22:07:56;;;;;;;17.60;7.45;;;;;;;3.74;100.00;100832.16;10466853;28;20401;-81
2023/01/09 22:13:11;;;;;;;23.85;9.63;;;;;;;3.85;100.00;100843.34;10443494;28;20097;-80
2023/01/09 22:18:12;;;;;;;20.05;8.20;;;;;;;3.88;100.00;100872.06;10422407;28;20108;-82
2023/01/09 22:23:13;;;;;;;41.58;9.63;;;;;;;3.80;100.00;100879.22;10400215;28;20494;-80
2023/01/09 22:28:13;;;;;;;14.30;7.05;;;;;;;3.70;100.00;100883.63;10416002;28;20051;-81
2023/01/09 22:33:14;;;;;;;13.80;6.25;;;;;;;3.57;100.00;100894.72;10378952;28;20120;-81
2023/01/09 22:38:14;;;;;;;16.30;7.47;;;;;;;3.55;100.00;100891.09;10424035;28;20076;-81
2023/01/09 22:43:16;;;;;;;16.15;7.43;;;;;;;3.41;100.00;100916.81;10412090;28;20787;-81
2023/01/09 22:48:16;;;;;;;7.73;4.30;;;;;;;3.44;100.00;100919.66;10411814;28;20041;-80
2023/01/09 22:53:17;;;;;;;15.98;6.45;;;;;;;3.57;100.00;100925.75;10393882;28;20402;-79
2023/01/09 22:58:17;;;;;;;14.50;7.47;;;;;;;3.69;100.00;100933.59;10435567;28;20041;-80
2023/01/09 23:03:18;;;;;;;13.70;6.55;;;;;;;3.74;100.00;100951.25;10417201;28;20050;-80
2023/01/09 23:08:18;;;;;;;12.90;7.38;;;;;;;3.77;100.00;100956.66;10382743;28;20038;-79
2023/01/09 23:13:19;;;;;;;16.15;7.65;;;;;;;3.79;100.00;100973.22;10401660;28;20038;-79
2023/01/09 23:18:19;;;;;;;11.13;6.80;;;;;;;3.87;100.00;100984.19;10413336;28;20044;-79
2023/01/09 23:23:20;;;;;;;13.82;6.13;;;;;;;3.92;100.00;100993.19;10426152;28;20595;-79
2023/01/09 23:28:21;;;;;;;9.48;5.75;;;;;;;3.93;100.00;101000.19;10404222;28;20045;-80
2023/01/09 23:33:21;;;;;;;11.52;6.10;;;;;;;3.99;100.00;101020.47;10422224;28;20516;-81
2023/01/09 23:38:22;;;;;;;12.98;5.75;;;;;;;4.04;100.00;101033.78;10430461;28;20071;-82
2023/01/09 23:43:22;;;;;;;17.88;5.97;;;;;;;4.02;100.00;101043.13;10393377;28;20108;-81
2023/01/09 23:48:23;;;;;;;11.68;4.60;;;;;;;4.02;100.00;101054.38;10392708;28;20045;-81